Time;durP1;ratioP1;P1;durP2;ratioP2;P2;SDS_P1;SDS_P2;PMS_P1;PMS_P2;Temp;Humidity;BMP_temperature;BMP_pressure;BME280_temperature;BME280_humidity;BME280_pressure;Samples;Min_cycle;Max_cycle;Signal;HPM_P1;HPM_P2
2023/08/14 00:01:42;;;;;;;3.25;2.47;;;;;;;19.19;92.83;101558.97;6117246;28;20236;-69
2023/08/14 00:05:04;;;;;;;2.80;2.25;;;;;;;19.10;93.83;101552.69;6118341;28;20275;-68
2023/08/14 00:08:27;;;;;;;4.43;2.35;;;;;;;19.19;94.38;101557.09;6091807;28;20231;-68
2023/08/14 00:11:48;;;;;;;4.05;1.95;;;;;;;19.30;94.58;101553.97;6090498;29;20240;-68
2023/08/14 00:15:09;;;;;;;1.85;1.70;;;;;;;19.38;94.47;101553.16;6085228;29;20241;-68
2023/08/14 00:18:31;;;;;;;4.05;2.33;;;;;;;19.44;94.08;101549.69;6076015;29;20244;-68
2023/08/14 00:21:53;;;;;;;2.63;2.42;;;;;;;19.07;94.09;101550.28;6073668;29;20228;-68
2023/08/14 00:25:14;;;;;;;3.30;2.40;;;;;;;19.04;94.67;101548.78;6097927;29;20245;-68
2023/08/14 00:28:35;;;;;;;6.22;2.38;;;;;;;19.13;94.84;101550.44;6057793;29;20225;-67
2023/08/14 00:31:55;;;;;;;2.63;2.42;;;;;;;19.04;95.02;101551.50;6089415;29;20240;-69
2023/08/14 00:35:17;;;;;;;7.03;2.67;;;;;;;18.99;95.53;101536.63;6080895;29;20237;-68
2023/08/14 00:38:40;;;;;;;4.00;3.35;;;;;;;19.17;95.62;101547.38;6063542;29;21145;-69
2023/08/14 00:42:00;;;;;;;3.47;2.47;;;;;;;19.17;95.29;101541.91;6091437;29;20236;-68
2023/08/14 00:45:21;;;;;;;2.63;2.30;;;;;;;19.03;95.74;101544.31;6078500;29;20229;-69
2023/08/14 00:48:43;;;;;;;5.03;3.22;;;;;;;19.07;95.93;101542.06;6063356;29;20245;-68
2023/08/14 00:52:04;;;;;;;4.40;2.85;;;;;;;19.04;95.92;101540.56;6076897;29;20897;-69
2023/08/14 00:55:26;;;;;;;3.10;2.42;;;;;;;19.04;96.04;101534.25;6088875;29;20797;-68
2023/08/14 00:58:49;;;;;;;5.53;4.15;;;;;;;18.99;95.98;101536.63;6090421;29;20328;-68
2023/08/14 01:02:10;;;;;;;3.42;2.10;;;;;;;18.74;96.62;101527.63;6073565;29;20232;-68
2023/08/14 01:05:32;;;;;;;5.72;2.15;;;;;;;18.94;96.63;101528.13;6085685;29;20241;-68
2023/08/14 01:08:53;;;;;;;3.03;2.42;;;;;;;19.02;96.61;101541.78;6085284;29;20241;-69
2023/08/14 01:12:30;;;;;;;4.25;2.72;;;;;;;18.88;96.23;101534.25;6053864;29;20236;-68
2023/08/14 01:15:55;;;;;;;4.10;2.03;;;;;;;18.93;96.58;101530.00;6064114;29;20236;-68
2023/08/14 01:19:22;;;;;;;4.47;2.58;;;;;;;18.84;96.26;101524.72;6082227;29;20244;-69
2023/08/14 01:22:56;;;;;;;2.45;2.25;;;;;;;18.81;96.14;101531.41;6090986;29;20245;-69
2023/08/14 01:26:19;;;;;;;3.13;2.35;;;;;;;18.72;96.41;101531.56;6057024;29;20414;-68
2023/08/14 01:29:43;;;;;;;7.85;2.65;;;;;;;18.93;96.75;101532.72;6087381;29;20783;-69
2023/08/14 01:33:04;;;;;;;6.43;2.50;;;;;;;18.92;96.17;101532.91;6053017;29;20371;-69
2023/08/14 01:36:34;;;;;;;5.45;2.58;;;;;;;19.01;95.77;101540.91;6052951;29;20247;-69
2023/08/14 01:40:03;;;;;;;2.38;2.17;;;;;;;19.05;95.88;101534.06;6078274;29;20229;-68
2023/08/14 01:43:30;;;;;;;4.38;2.33;;;;;;;19.04;95.63;101539.72;6046097;29;20250;-67
2023/08/14 01:46:53;;;;;;;4.47;2.70;;;;;;;18.85;95.62;101553.75;6044263;29;20307;-68
2023/08/14 01:50:16;;;;;;;2.67;1.88;;;;;;;18.79;96.03;101558.03;6076957;29;20244;-68
2023/08/14 01:53:37;;;;;;;3.17;2.00;;;;;;;18.54;96.25;101553.63;6080070;29;20245;-68
2023/08/14 01:56:58;;;;;;;3.40;2.35;;;;;;;18.47;96.85;101549.84;6074122;29;20751;-69
2023/08/14 02:00:21;;;;;;;3.83;2.53;;;;;;;18.28;97.46;101540.09;6080148;29;20615;-69
2023/08/14 02:03:42;;;;;;;3.95;2.40;;;;;;;18.51;97.92;101547.63;6085402;29;20236;-68
2023/08/14 02:07:03;;;;;;;4.40;2.38;;;;;;;18.19;97.95;101543.81;6069339;29;20810;-67
2023/08/14 02:10:24;;;;;;;3.47;2.50;;;;;;;18.26;98.63;101538.53;6088188;29;20240;-68
2023/08/14 02:13:47;;;;;;;2.95;2.13;;;;;;;18.38;98.46;101532.59;6076797;29;20319;-68
2023/08/14 02:17:09;;;;;;;2.80;1.88;;;;;;;18.22;98.40;101531.72;6068212;29;20231;-68
2023/08/14 02:20:30;;;;;;;3.65;1.98;;;;;;;18.03;98.68;101537.50;6095572;29;20229;-69
2023/08/14 02:23:52;;;;;;;3.75;2.28;;;;;;;18.19;99.33;101530.19;6071161;29;20233;-68
2023/08/14 02:27:13;;;;;;;5.78;2.55;;;;;;;18.33;99.13;101515.88;6061792;29;20237;-69
2023/08/14 02:30:36;;;;;;;3.15;2.17;;;;;;;18.50;98.61;101524.09;6088827;29;20248;-68
2023/08/14 02:34:00;;;;;;;2.47;2.10;;;;;;;18.56;97.77;101520.66;6076610;29;20252;-68
2023/08/14 02:37:23;;;;;;;4.57;2.40;;;;;;;18.65;97.80;101523.19;6080998;29;20229;-68
2023/08/14 02:40:44;;;;;;;3.47;2.40;;;;;;;18.62;97.24;101529.03;6089289;29;20227;-67
2023/08/14 02:44:05;;;;;;;4.15;2.47;;;;;;;18.54;97.13;101525.44;6089756;29;20228;-69
2023/08/14 02:47:26;;;;;;;3.17;2.85;;;;;;;18.57;97.10;101520.47;6074110;29;20315;-69
2023/08/14 02:50:49;;;;;;;4.15;2.33;;;;;;;18.56;96.98;101521.53;6082972;29;20240;-69
2023/08/14 02:54:10;;;;;;;3.15;2.42;;;;;;;18.52;96.77;101514.72;6065330;29;20240;-69
2023/08/14 02:57:31;;;;;;;2.38;2.17;;;;;;;18.57;96.56;101520.47;6077081;29;20512;-68
2023/08/14 03:00:55;;;;;;;2.17;1.60;;;;;;;18.55;96.52;101521.69;6087424;29;20237;-68
2023/08/14 03:04:17;;;;;;;3.13;2.45;;;;;;;18.54;96.65;101526.31;6087219;29;20240;-69
2023/08/14 03:07:39;;;;;;;2.90;2.22;;;;;;;18.46;96.69;101525.47;6054203;29;20290;-68
2023/08/14 03:11:00;;;;;;;4.53;2.85;;;;;;;18.33;96.62;101521.34;6092670;29;20233;-68
2023/08/14 03:14:21;;;;;;;2.72;2.45;;;;;;;18.38;96.83;101515.34;6095386;29;20520;-67
2023/08/14 03:17:43;;;;;;;2.85;2.50;;;;;;;18.39;97.15;101517.06;6085959;29;20240;-68
2023/08/14 03:21:04;;;;;;;2.80;2.58;;;;;;;18.37;97.11;101519.09;6078794;29;20232;-68
2023/08/14 03:24:26;;;;;;;4.15;3.30;;;;;;;18.38;97.36;101522.69;6088897;29;20241;-68
2023/08/14 03:27:46;;;;;;;14.77;11.80;;;;;;;18.44;97.04;101520.16;6067494;29;20240;-68
2023/08/14 03:31:07;;;;;;;4.97;4.53;;;;;;;18.39;96.97;101519.78;6079815;29;20228;-68
2023/08/14 03:34:29;;;;;;;5.55;4.80;;;;;;;18.35;97.11;101511.09;6087437;29;20244;-68
2023/08/14 03:37:50;;;;;;;4.40;3.72;;;;;;;18.31;97.15;101506.97;6089279;29;20237;-68
2023/08/14 03:41:14;;;;;;;5.78;3.45;;;;;;;18.38;97.00;101509.06;6063524;29;20235;-70
2023/08/14 03:44:35;;;;;;;4.72;3.70;;;;;;;18.38;97.16;101502.53;6088454;29;20546;-69
2023/08/14 03:47:56;;;;;;;5.05;3.47;;;;;;;18.36;96.85;101499.13;6044458;29;20244;-69
2023/08/14 03:51:17;;;;;;;2.97;2.67;;;;;;;18.33;96.91;101502.22;6084108;29;20245;-67
2023/08/14 03:54:39;;;;;;;6.07;2.90;;;;;;;18.26;97.04;101509.38;6085693;29;20638;-68
2023/08/14 03:58:01;;;;;;;2.55;2.28;;;;;;;18.28;96.99;101503.75;6076544;29;20613;-69
2023/08/14 04:01:21;;;;;;;4.13;3.80;;;;;;;18.24;96.94;101505.97;6077603;29;20321;-68
2023/08/14 04:04:42;;;;;;;9.00;8.10;;;;;;;18.27;96.89;101505.59;6070825;29;20244;-68
2023/08/14 04:08:07;;;;;;;10.95;7.70;;;;;;;18.17;97.17;101506.81;6076337;29;20613;-68
2023/08/14 04:11:28;;;;;;;5.10;4.32;;;;;;;18.10;97.41;101516.72;6076289;29;20557;-69
2023/08/14 04:14:51;;;;;;;6.15;4.47;;;;;;;18.01;97.71;101509.53;6094726;29;20236;-68
2023/08/14 04:18:11;;;;;;;12.93;11.55;;;;;;;18.11;97.81;101510.22;6082680;29;20350;-68
2023/08/14 04:21:32;;;;;;;11.43;10.35;;;;;;;18.22;97.69;101498.97;6077913;29;20249;-68
2023/08/14 04:24:53;;;;;;;7.38;5.22;;;;;;;18.31;97.73;101503.41;6092048;29;20558;-67
2023/08/14 04:28:14;;;;;;;7.70;4.63;;;;;;;18.33;97.46;101499.50;6083516;29;20229;-69
2023/08/14 04:31:40;;;;;;;6.15;5.55;;;;;;;18.38;97.25;101502.53;6064084;29;20636;-69
2023/08/14 04:35:01;;;;;;;8.30;4.47;;;;;;;18.44;96.75;101505.66;6080939;29;20240;-68
2023/08/14 04:38:22;;;;;;;6.68;3.67;;;;;;;18.51;96.66;101509.38;6058349;29;20635;-68
2023/08/14 04:41:46;;;;;;;3.63;2.63;;;;;;;18.54;96.35;101511.78;6061978;29;20233;-68
2023/08/14 04:45:07;;;;;;;5.13;3.55;;;;;;;18.54;96.14;101509.94;6069380;29;20241;-69
2023/08/14 04:48:30;;;;;;;3.45;3.15;;;;;;;18.58;95.78;101513.16;6061644;29;20339;-69
2023/08/14 04:51:51;;;;;;;6.47;3.58;;;;;;;18.66;95.87;101500.34;6060969;29;20331;-68
2023/08/14 04:55:13;;;;;;;4.75;3.00;;;;;;;18.71;95.34;101500.66;6063556;29;20494;-68
2023/08/14 04:58:35;;;;;;;4.75;3.55;;;;;;;18.69;95.27;101499.97;6057688;29;20232;-68
2023/08/14 05:01:57;;;;;;;7.07;2.83;;;;;;;18.78;95.11;101500.81;6054823;29;22546;-69
2023/08/14 05:05:20;;;;;;;4.03;3.00;;;;;;;18.69;95.07;101499.16;6090459;29;20256;-68
2023/08/14 05:08:41;;;;;;;6.20;3.58;;;;;;;18.85;94.77;101502.69;6081249;29;20237;-69
2023/08/14 05:12:02;;;;;;;6.43;5.82;;;;;;;19.01;94.23;101504.53;6061256;29;20298;-69
2023/08/14 05:15:22;;;;;;;7.95;6.45;;;;;;;18.91;93.65;101504.72;6092666;29;20228;-69
2023/08/14 05:18:44;;;;;;;6.95;5.93;;;;;;;19.03;93.80;101499.72;6085065;29;20542;-69
2023/08/14 05:22:07;;;;;;;4.10;3.47;;;;;;;18.99;93.09;101507.44;6082232;29;20240;-68
2023/08/14 05:25:27;;;;;;;4.90;3.88;;;;;;;19.05;93.25;101503.13;6084571;29;20263;-68
2023/08/14 05:28:48;;;;;;;7.82;2.95;;;;;;;19.02;92.65;101498.88;6078376;29;20245;-69
2023/08/14 05:32:09;;;;;;;5.28;2.88;;;;;;;19.37;92.11;101503.06;6074302;29;20542;-68
2023/08/14 05:35:30;;;;;;;6.97;3.97;;;;;;;19.50;91.52;101508.81;6087602;29;20232;-69
2023/08/14 05:38:52;;;;;;;4.55;3.17;;;;;;;19.44;90.79;101508.69;6067978;29;20225;-69
2023/08/14 05:42:15;;;;;;;4.40;2.88;;;;;;;19.66;90.36;101510.59;6077092;29;20236;-69
2023/08/14 05:45:37;;;;;;;7.47;2.63;;;;;;;19.59;90.32;101513.19;6086444;29;20302;-68
2023/08/14 05:48:58;;;;;;;3.25;3.00;;;;;;;19.53;90.60;101513.06;6082670;29;20326;-69
2023/08/14 05:52:19;;;;;;;3.97;2.90;;;;;;;19.53;90.53;101515.78;6078558;29;20597;-68
2023/08/14 05:55:42;;;;;;;9.13;3.70;;;;;;;19.81;90.58;101526.09;6085961;29;20260;-68
2023/08/14 05:59:03;;;;;;;5.43;2.75;;;;;;;19.26;90.73;101513.47;6073148;29;20232;-68
2023/08/14 06:02:24;;;;;;;8.43;4.10;;;;;;;19.53;91.47;101516.66;6071884;29;20233;-68
2023/08/14 06:05:45;;;;;;;5.25;2.45;;;;;;;19.56;91.15;101512.72;6090407;29;20235;-68
2023/08/14 06:09:06;;;;;;;3.17;2.72;;;;;;;19.86;90.59;101517.31;6060519;29;20232;-69
2023/08/14 06:12:29;;;;;;;3.03;2.70;;;;;;;19.99;89.47;101512.09;6071221;29;20257;-68
2023/08/14 06:15:50;;;;;;;4.70;3.42;;;;;;;20.19;88.71;101516.06;6086088;29;20229;-69
2023/08/14 06:19:11;;;;;;;5.13;3.15;;;;;;;20.55;87.61;101510.81;6092880;29;20240;-68
2023/08/14 06:22:32;;;;;;;6.00;3.15;;;;;;;20.63;86.31;101519.81;6074172;29;20320;-68
2023/08/14 06:25:53;;;;;;;5.38;2.63;;;;;;;20.94;85.01;101516.09;6083111;29;20225;-69
2023/08/14 06:29:15;;;;;;;3.83;2.80;;;;;;;20.96;84.26;101516.75;6095776;29;20260;-67
2023/08/14 06:32:37;;;;;;;22.38;3.88;;;;;;;20.87;84.29;101528.84;6086949;29;20241;-67
2023/08/14 06:35:58;;;;;;;4.80;3.15;;;;;;;21.05;83.91;101523.91;6071124;29;20245;-67
2023/08/14 06:39:19;;;;;;;4.18;2.92;;;;;;;21.40;82.92;101525.88;6094280;29;20527;-67
2023/08/14 06:42:40;;;;;;;4.47;3.47;;;;;;;21.41;82.58;101525.66;6057801;29;20582;-67
2023/08/14 06:46:02;;;;;;;4.93;2.83;;;;;;;21.11;82.24;101529.44;6060326;29;20521;-66
2023/08/14 06:49:23;;;;;;;6.82;4.97;;;;;;;21.16;83.65;101531.63;6076360;29;20253;-67
2023/08/14 06:52:44;;;;;;;6.75;6.15;;;;;;;21.54;83.22;101530.47;6077811;29;20240;-66
2023/08/14 06:56:05;;;;;;;4.30;3.38;;;;;;;21.32;82.32;101536.91;6074357;29;20469;-67
2023/08/14 06:59:26;;;;;;;4.95;2.78;;;;;;;21.76;82.75;101523.16;6079099;29;20244;-66
2023/08/14 07:02:48;;;;;;;8.57;4.18;;;;;;;21.33;81.88;101525.78;6064580;29;20607;-66
2023/08/14 07:06:09;;;;;;;4.00;3.15;;;;;;;21.81;81.53;101517.94;6064391;29;20241;-66
2023/08/14 07:09:30;;;;;;;3.53;2.70;;;;;;;22.20;80.09;101527.47;6076714;29;20261;-66
2023/08/14 07:12:51;;;;;;;5.80;3.83;;;;;;;22.28;79.03;101521.00;6072163;29;20854;-66
2023/08/14 07:16:12;;;;;;;6.72;3.38;;;;;;;21.94;79.05;101535.47;6074639;29;20236;-67
2023/08/14 07:19:35;;;;;;;2.70;2.47;;;;;;;21.68;80.41;101534.22;6088039;29;20227;-67
2023/08/14 07:22:56;;;;;;;7.07;4.40;;;;;;;21.93;79.98;101533.75;6054346;29;20241;-65
2023/08/14 07:26:17;;;;;;;6.13;3.92;;;;;;;22.18;79.45;101524.09;6072425;29;20236;-67
2023/08/14 07:29:38;;;;;;;6.88;3.58;;;;;;;22.45;78.81;101519.69;6086962;29;20328;-65
2023/08/14 07:32:59;;;;;;;4.20;3.38;;;;;;;22.62;77.62;101515.66;6067742;29;20327;-66
2023/08/14 07:36:21;;;;;;;9.02;5.15;;;;;;;22.89;77.56;101514.78;6074048;29;20258;-67
2023/08/14 07:39:42;;;;;;;6.45;5.85;;;;;;;23.29;76.07;101518.66;6081321;29;20545;-66
2023/08/14 07:43:03;;;;;;;6.03;3.28;;;;;;;23.10;75.08;101519.38;6067549;29;20228;-67
2023/08/14 07:46:24;;;;;;;5.80;4.07;;;;;;;23.26;73.67;101504.47;6083889;29;20236;-67
2023/08/14 07:49:47;;;;;;;4.88;3.47;;;;;;;23.23;72.82;101513.09;6089096;29;20318;-66
2023/08/14 07:53:10;;;;;;;4.63;3.33;;;;;;;22.66;72.49;101513.34;6066310;29;20237;-65
2023/08/14 07:56:31;;;;;;;9.43;3.38;;;;;;;23.06;72.39;101509.81;6091504;29;20583;-66
2023/08/14 07:59:52;;;;;;;5.28;3.05;;;;;;;23.02;71.37;101505.78;6081099;29;20232;-65
2023/08/14 08:03:13;;;;;;;4.15;2.60;;;;;;;23.20;71.51;101511.59;6067333;29;20236;-66
2023/08/14 08:06:34;;;;;;;2.70;2.47;;;;;;;23.25;71.18;101509.09;6086309;29;20327;-65
2023/08/14 08:09:56;;;;;;;3.88;2.50;;;;;;;23.26;70.75;101510.78;6089637;29;20328;-67
2023/08/14 08:13:17;;;;;;;4.68;2.55;;;;;;;23.61;70.31;101517.16;6073400;29;20630;-66
2023/08/14 08:16:38;;;;;;;3.60;2.72;;;;;;;23.80;70.36;101516.38;6081941;29;20345;-66
2023/08/14 08:19:59;;;;;;;5.20;3.15;;;;;;;24.04;69.95;101518.59;6092944;29;20299;-66
2023/08/14 08:23:20;;;;;;;3.67;2.55;;;;;;;23.89;69.09;101523.38;6082168;29;20327;-66
2023/08/14 08:26:42;;;;;;;8.65;3.92;;;;;;;23.70;70.85;101518.66;6078404;29;20591;-66
2023/08/14 08:30:03;;;;;;;3.63;2.97;;;;;;;23.71;70.44;101517.59;6093336;29;20240;-66
2023/08/14 08:33:25;;;;;;;8.18;3.25;;;;;;;23.25;72.61;101514.59;6083602;29;20240;-65
2023/08/14 08:36:45;;;;;;;8.02;4.30;;;;;;;23.96;71.50;101518.75;6068213;29;20233;-66
2023/08/14 08:40:08;;;;;;;5.50;2.88;;;;;;;24.15;70.96;101515.22;6086693;29;20268;-67
2023/08/14 08:43:32;;;;;;;4.82;2.85;;;;;;;24.46;69.64;101512.72;6074495;29;20595;-66
2023/08/14 08:46:58;;;;;;;5.15;2.88;;;;;;;24.23;70.53;101519.69;6070055;29;20232;-66
2023/08/14 08:50:18;;;;;;;5.20;2.75;;;;;;;24.24;70.02;101524.16;6102843;29;20236;-66
2023/08/14 08:53:40;;;;;;;2.95;2.60;;;;;;;24.57;69.85;101514.81;6086580;29;20236;-66
2023/08/14 08:57:01;;;;;;;3.35;2.15;;;;;;;24.52;69.87;101511.88;6077465;29;20282;-66
2023/08/14 09:00:24;;;;;;;7.82;3.13;;;;;;;24.15;69.46;101514.38;6092164;29;20296;-67
2023/08/14 09:03:45;;;;;;;3.60;2.70;;;;;;;24.51;70.29;101507.41;6083598;29;20240;-66
2023/08/14 09:07:06;;;;;;;3.47;2.63;;;;;;;24.82;68.26;101495.78;6083818;29;20323;-66
2023/08/14 09:10:27;;;;;;;10.48;3.47;;;;;;;25.61;67.35;101503.84;6084903;29;20645;-66
2023/08/14 09:13:49;;;;;;;2.28;2.08;;;;;;;25.58;66.33;101501.53;6085127;29;20242;-66
2023/08/14 09:17:11;;;;;;;5.25;2.83;;;;;;;25.00;67.11;101514.41;6076994;29;20320;-66
2023/08/14 09:20:32;;;;;;;5.43;3.38;;;;;;;24.19;68.96;101513.75;6085098;29;20232;-66
2023/08/14 09:23:54;;;;;;;6.40;2.80;;;;;;;25.16;67.25;101501.00;6074955;29;20641;-66
2023/08/14 09:27:15;;;;;;;7.03;3.03;;;;;;;25.52;66.31;101503.25;6085961;29;20241;-65
2023/08/14 09:30:37;;;;;;;4.03;1.90;;;;;;;25.76;65.08;101496.16;6081236;29;20327;-65
2023/08/14 09:34:01;;;;;;;6.60;4.38;;;;;;;26.10;64.89;101504.03;6079555;29;20249;-65
2023/08/14 09:37:22;;;;;;;6.63;2.90;;;;;;;26.64;63.23;101504.25;6075254;29;20247;-66
2023/08/14 09:40:43;;;;;;;4.07;2.60;;;;;;;25.88;63.37;101508.19;6063296;29;20229;-66
2023/08/14 09:44:05;;;;;;;4.30;2.60;;;;;;;25.68;63.80;101507.44;6071447;29;20592;-67
2023/08/14 09:47:26;;;;;;;3.65;2.65;;;;;;;24.90;65.05;101502.97;6069743;29;20233;-66
2023/08/14 09:50:50;;;;;;;3.67;2.22;;;;;;;25.10;63.91;101499.09;6080433;29;20236;-66
2023/08/14 09:54:11;;;;;;;3.47;2.20;;;;;;;25.24;63.24;101506.28;6083116;29;20225;-66
2023/08/14 09:57:32;;;;;;;3.20;2.53;;;;;;;25.16;62.85;101495.47;6075882;29;20236;-66
2023/08/14 10:00:53;;;;;;;3.17;1.98;;;;;;;25.34;61.68;101501.19;6081813;29;20252;-65
2023/08/14 10:04:14;;;;;;;5.22;2.67;;;;;;;25.54;61.74;101486.44;6087055;29;20237;-66
2023/08/14 10:07:39;;;;;;;2.80;1.83;;;;;;;25.74;61.71;101478.94;6067299;29;20236;-66
2023/08/14 10:11:03;;;;;;;4.10;1.98;;;;;;;25.35;61.39;101474.38;6093235;29;20233;-66
2023/08/14 10:14:27;;;;;;;2.28;2.03;;;;;;;25.74;61.29;101477.00;6089725;29;20224;-66
2023/08/14 10:17:54;;;;;;;3.25;2.13;;;;;;;24.91;61.88;101468.81;6072248;29;20272;-66
2023/08/14 10:21:17;;;;;;;6.65;2.45;;;;;;;25.18;62.67;101460.22;6081268;29;20244;-65
2023/08/14 10:24:41;;;;;;;3.42;2.13;;;;;;;25.26;62.59;101467.44;6088731;29;20233;-66
2023/08/14 10:28:03;;;;;;;2.42;1.83;;;;;;;25.44;62.62;101455.69;6068440;29;20239;-66
2023/08/14 10:31:25;;;;;;;14.60;2.92;;;;;;;25.91;62.01;101446.97;6080324;29;20228;-66
2023/08/14 10:34:49;;;;;;;3.70;2.35;;;;;;;26.50;59.89;101443.75;6089807;29;20323;-66
2023/08/14 10:38:10;;;;;;;3.85;2.35;;;;;;;26.45;59.93;101466.53;6064047;29;20232;-66
2023/08/14 10:41:34;;;;;;;2.25;2.05;;;;;;;26.51;59.00;101464.81;6071763;29;20240;-65
2023/08/14 10:44:59;;;;;;;3.55;2.80;;;;;;;27.15;57.71;101462.47;6083940;29;20263;-65
2023/08/14 10:48:22;;;;;;;8.82;4.30;;;;;;;27.48;57.78;101454.66;6084284;29;20880;-67
2023/08/14 10:51:44;;;;;;;3.33;2.55;;;;;;;26.76;59.35;101444.38;6075284;29;20244;-66
2023/08/14 10:55:14;;;;;;;4.38;3.15;;;;;;;27.45;58.74;101440.44;6085004;29;20505;-66
2023/08/14 10:58:47;;;;;;;2.58;2.38;;;;;;;27.77;57.84;101438.25;6074872;29;20645;-66
2023/08/14 11:02:14;;;;;;;2.25;1.55;;;;;;;28.17;57.08;101442.16;6076468;29;20252;-66
2023/08/14 11:05:36;;;;;;;2.83;1.98;;;;;;;27.71;56.66;101451.13;6079095;29;20240;-66
2023/08/14 11:09:04;;;;;;;2.38;1.98;;;;;;;26.88;56.26;101464.69;6064027;29;20229;-65
2023/08/14 11:12:25;;;;;;;3.03;2.00;;;;;;;26.62;57.66;101475.13;6076818;29;20236;-65
2023/08/14 11:15:48;;;;;;;2.17;1.55;;;;;;;27.57;57.43;101460.72;6084162;29;20236;-67
2023/08/14 11:19:11;;;;;;;3.55;1.92;;;;;;;28.11;55.99;101459.75;6096921;29;20237;-66
2023/08/14 11:22:32;;;;;;;5.53;2.60;;;;;;;27.73;54.20;101457.28;6068435;29;20234;-65
2023/08/14 11:25:56;;;;;;;4.75;2.33;;;;;;;28.25;53.90;101450.97;6086541;29;20237;-66
2023/08/14 11:29:16;;;;;;;2.47;1.70;;;;;;;28.62;53.18;101459.97;6086061;29;20252;-66
2023/08/14 11:32:39;;;;;;;2.58;2.17;;;;;;;28.89;54.20;101447.31;6069850;29;20249;-64
2023/08/14 11:36:00;;;;;;;4.05;2.30;;;;;;;29.56;53.60;101459.63;6086033;29;20264;-65
2023/08/14 11:39:21;;;;;;;3.53;2.25;;;;;;;30.03;51.64;101451.97;6084205;29;20224;-65
2023/08/14 11:42:42;;;;;;;2.72;2.00;;;;;;;30.05;50.95;101457.28;6075051;29;20232;-65
2023/08/14 11:46:03;;;;;;;4.00;2.15;;;;;;;29.09;51.80;101456.13;6087837;29;20534;-66
2023/08/14 11:49:25;;;;;;;2.78;2.28;;;;;;;29.29;53.52;101444.63;6075199;29;20232;-66
2023/08/14 11:52:46;;;;;;;4.68;2.40;;;;;;;29.48;52.02;101434.16;6071281;29;20235;-65
2023/08/14 11:56:07;;;;;;;3.17;2.17;;;;;;;29.07;53.40;101435.22;6066909;29;20268;-66
2023/08/14 11:59:27;;;;;;;3.22;2.92;;;;;;;28.78;53.03;101437.06;6077500;29;20232;-66
2023/08/14 12:02:51;;;;;;;3.38;2.45;;;;;;;29.76;53.68;101437.84;6078698;29;20237;-66
2023/08/14 12:06:13;;;;;;;3.92;2.53;;;;;;;29.78;52.57;101421.75;6069182;29;20241;-66
2023/08/14 12:09:36;;;;;;;3.45;1.67;;;;;;;30.59;50.15;101429.59;6078412;29;20229;-65
2023/08/14 12:12:57;;;;;;;3.08;2.42;;;;;;;31.54;49.36;101420.94;6061672;29;20233;-67
2023/08/14 12:16:21;;;;;;;4.15;2.45;;;;;;;33.43;45.62;101415.50;6068642;29;20236;-66
2023/08/14 12:19:42;;;;;;;4.78;2.17;;;;;;;34.12;42.79;101421.59;6073005;29;20245;-67
2023/08/14 12:23:14;;;;;;;4.22;2.60;;;;;;;35.90;40.43;101411.31;6067942;29;20228;-66
2023/08/14 12:26:42;;;;;;;4.35;3.95;;;;;;;35.28;41.52;101408.25;6070827;29;20255;-67
2023/08/14 12:30:03;;;;;;;2.13;1.85;;;;;;;36.51;37.94;101402.47;6079422;29;20544;-66
2023/08/14 12:33:24;;;;;;;4.57;2.63;;;;;;;36.49;38.29;101397.13;6069619;29;20264;-66
2023/08/14 12:36:45;;;;;;;2.65;2.40;;;;;;;38.78;36.51;101392.50;6073778;29;20755;-68
2023/08/14 12:40:09;;;;;;;2.53;1.92;;;;;;;40.15;34.93;101396.00;6081803;29;20232;-68
2023/08/14 12:43:30;;;;;;;2.83;2.30;;;;;;;39.46;33.88;101381.22;6085596;29;20232;-67
2023/08/14 12:46:51;;;;;;;1.90;1.80;;;;;;;39.83;33.23;101382.91;6079415;29;20236;-68
2023/08/14 12:50:12;;;;;;;3.90;2.17;;;;;;;38.32;34.20;101378.38;6088554;29;20233;-68
2023/08/14 12:53:33;;;;;;;2.05;1.42;;;;;;;35.48;38.84;101371.75;6076115;29;20241;-68
2023/08/14 12:56:55;;;;;;;2.67;1.90;;;;;;;35.04;41.58;101382.88;6076741;29;20750;-68
2023/08/14 13:00:17;;;;;;;2.15;1.60;;;;;;;34.15;40.14;101371.47;6087067;29;20599;-69
2023/08/14 13:03:38;;;;;;;2.90;2.60;;;;;;;34.44;40.86;101371.75;6090309;29;20602;-67
2023/08/14 13:06:59;;;;;;;4.18;3.83;;;;;;;37.79;36.17;101368.56;6074584;29;20241;-67
2023/08/14 13:10:20;;;;;;;3.90;2.25;;;;;;;38.81;34.67;101362.84;6089636;29;20236;-67
2023/08/14 13:13:42;;;;;;;2.83;1.67;;;;;;;37.07;35.77;101358.53;6080438;29;20247;-69
2023/08/14 13:17:03;;;;;;;6.53;2.33;;;;;;;35.97;39.27;101361.31;6076969;29;20316;-68
2023/08/14 13:20:24;;;;;;;3.70;2.53;;;;;;;33.41;40.76;101364.59;6086959;29;20244;-67
2023/08/14 13:23:45;;;;;;;2.47;2.03;;;;;;;34.64;40.49;101360.53;6077675;29;20349;-69
2023/08/14 13:27:06;;;;;;;5.65;2.55;;;;;;;34.21;39.92;101349.91;6068286;29;20229;-67
2023/08/14 13:30:28;;;;;;;2.92;2.63;;;;;;;36.32;39.23;101348.91;6076208;29;20237;-68
2023/08/14 13:33:49;;;;;;;2.92;1.90;;;;;;;38.83;34.62;101352.91;6090626;29;20252;-68
2023/08/14 13:37:10;;;;;;;2.45;2.05;;;;;;;39.52;34.73;101348.91;6071799;29;20236;-67
2023/08/14 13:40:31;;;;;;;2.28;2.13;;;;;;;39.44;34.43;101338.34;6081024;29;20317;-68
2023/08/14 13:43:53;;;;;;;3.03;2.40;;;;;;;39.71;33.13;101340.28;6093332;29;20236;-68
2023/08/14 13:47:15;;;;;;;2.50;2.00;;;;;;;38.92;34.17;101330.47;6072482;29;20287;-68
2023/08/14 13:50:37;;;;;;;2.97;1.88;;;;;;;38.33;34.71;101320.03;6083000;29;20228;-68
2023/08/14 13:53:58;;;;;;;3.40;1.92;;;;;;;34.34;39.63;101307.31;6080539;29;20232;-68
2023/08/14 13:57:19;;;;;;;4.15;1.98;;;;;;;35.40;39.45;101307.78;6080976;29;20558;-69
2023/08/14 14:00:39;;;;;;;2.15;1.83;;;;;;;36.99;36.86;101302.94;6084243;29;20237;-69
2023/08/14 14:04:02;;;;;;;2.13;1.80;;;;;;;33.58;41.07;101295.28;6074625;29;20241;-68
2023/08/14 14:07:22;;;;;;;2.50;1.98;;;;;;;35.12;39.06;101308.50;6076788;29;20524;-68
2023/08/14 14:10:43;;;;;;;5.78;2.13;;;;;;;34.72;39.39;101301.09;6081601;29;20233;-69
2023/08/14 14:14:04;;;;;;;3.65;2.00;;;;;;;35.87;38.44;101316.44;6087954;29;20524;-68
2023/08/14 14:17:26;;;;;;;2.78;2.17;;;;;;;35.42;39.27;101305.53;6073668;29;21520;-67
2023/08/14 14:20:49;;;;;;;2.63;2.42;;;;;;;34.67;39.56;101308.69;6086380;29;20240;-69
2023/08/14 14:24:09;;;;;;;5.10;2.55;;;;;;;32.13;43.93;101301.84;6086019;29;20253;-69
2023/08/14 14:27:30;;;;;;;3.88;2.13;;;;;;;31.24;45.70;101303.47;6078379;29;20554;-67
2023/08/14 14:31:02;;;;;;;3.95;2.40;;;;;;;31.57;45.49;101296.88;6091068;29;20663;-70
2023/08/14 14:34:23;;;;;;;3.83;1.90;;;;;;;31.08;46.86;101296.91;6080913;29;20582;-67
2023/08/14 14:37:45;;;;;;;3.78;2.30;;;;;;;32.08;44.74;101296.25;6070057;29;20678;-68
2023/08/14 14:41:06;;;;;;;2.03;1.85;;;;;;;32.16;44.29;101287.38;6082093;29;20251;-68
2023/08/14 14:44:27;;;;;;;5.28;4.78;;;;;;;32.30;45.90;101280.19;6080673;29;20265;-69
2023/08/14 14:47:48;;;;;;;3.22;2.63;;;;;;;31.80;45.71;101288.16;6072393;29;20248;-69
2023/08/14 14:51:09;;;;;;;3.15;2.85;;;;;;;31.75;46.19;101290.91;6078374;29;20240;-69
2023/08/14 14:54:31;;;;;;;3.30;2.45;;;;;;;31.50;45.99;101286.78;6084478;29;20583;-69
2023/08/14 14:57:52;;;;;;;3.15;2.30;;;;;;;31.61;46.54;101287.72;6075688;29;20240;-68
2023/08/14 15:01:14;;;;;;;3.10;2.58;;;;;;;31.79;45.77;101287.34;6077288;29;20256;-68
2023/08/14 15:04:34;;;;;;;2.10;2.00;;;;;;;31.49;44.97;101284.25;6073216;29;20233;-68
2023/08/14 15:07:56;;;;;;;6.85;2.30;;;;;;;32.36;44.24;101281.91;6071131;29;20666;-69
2023/08/14 15:11:19;;;;;;;3.70;2.83;;;;;;;31.74;45.98;101284.50;6100565;29;20754;-68
2023/08/14 15:14:39;;;;;;;2.85;2.30;;;;;;;32.35;44.78;101279.38;6079689;29;20323;-68
2023/08/14 15:18:00;;;;;;;3.92;2.40;;;;;;;31.94;45.51;101281.06;6063584;29;20264;-68
2023/08/14 15:21:21;;;;;;;2.55;1.90;;;;;;;29.77;46.63;101286.59;6072780;29;20615;-68
2023/08/14 15:24:42;;;;;;;3.35;1.80;;;;;;;29.06;48.11;101276.06;6087751;29;20228;-68
2023/08/14 15:28:08;;;;;;;3.15;2.13;;;;;;;29.76;47.52;101279.38;6067200;29;20740;-68
2023/08/14 15:31:28;;;;;;;3.53;2.65;;;;;;;29.97;47.15;101270.25;6077646;29;20237;-67
2023/08/14 15:34:50;;;;;;;15.57;13.98;;;;;;;30.91;46.64;101271.06;6091211;29;20517;-68
2023/08/14 15:38:11;;;;;;;2.40;2.20;;;;;;;30.63;46.10;101265.66;6086132;29;20332;-68